Weather History for Thomson, GA

Change the Weather History Date:

Sunday, August 11, 2013

  Actual Average (KDBN) Record (KDBN)
Temperature  
Mean Temperature 80 °F -  
Max Temperature 91 °F 92 °F 102 °F (1956)
Min Temperature 70 °F 68 °F 62 °F (1989)
Cooling Degree Days 16    
Growing Degree Days 30 (Base 50)    
Moisture  
Dew Point 74 °F    
Average Humidity 83    
Maximum Humidity 100    
Minimum Humidity 55    
Precipitation  
Precipitation 0.00 in - - ()
Sea Level Pressure  
Sea Level Pressure 30.17 in    
Wind  
Wind Speed 2 mph (WSW)    
Max Wind Speed 9 mph    
Max Gust Speed -    
Visibility 10 miles    
Events      
Averages and records for this station are not official NWS values.
T = Trace of Precipitation, MM = Missing Value Source: NWS Daily Summary

Daily Weather History Graph

Daily Weather History Graph

Search for Another Location

Airport:

Trip Planner

Search our weather history database for the weather conditions in past years. The results will help you decide how hot, cold, wet, or windy it might be!

Date:

Astronomy

Aug. 11, 2013 Rise Set
Actual Time 6:49 AM EDT 8:20 PM EDT
Civil Twilight 6:23 AM EDT 8:46 PM EDT
Nautical Twilight 5:51 AM EDT 9:18 PM EDT
Astronomical Twilight 5:18 AM EDT 9:51 PM EDT
Moon 11:18 AM EDT (8/11) 10:53 PM EDT (8/11)
Length of Visible Light 14h 23m
Length of Day
13h 30m
Waxing Crescent, 22% of the Moon is Illuminated
Aug 11
Waxing Crescent
Aug 14
First Quarter
Aug 20
Full
Aug 28
Last Quarter
Sep 5
New

Hourly Weather History & Observations

Time (EDT) Temp. Heat Index Dew Point Humidity Pressure Visibility Wind Dir Wind Speed Gust Speed Precip Events Conditions
12:15 AM 74.7 °F - 74.7 °F 100% 30.16 in 10.0 mi Calm Calm - N/A   Clear
12:35 AM 74.3 °F - 74.3 °F 100% 30.16 in 10.0 mi Calm Calm - N/A   Clear
12:55 AM 74.3 °F - 74.3 °F 100% 30.17 in 10.0 mi Calm Calm - N/A   Clear
1:15 AM 73.8 °F - 73.8 °F 100% 30.17 in 10.0 mi Calm Calm - N/A   Clear
1:35 AM 73.6 °F - 73.6 °F 100% 30.17 in 10.0 mi Calm Calm - N/A   Clear
1:55 AM 73.6 °F - 73.6 °F 100% 30.17 in 10.0 mi Calm Calm - N/A   Clear
2:15 AM 73.4 °F - 73.4 °F 100% 30.17 in 7.0 mi Calm Calm - N/A   Clear
2:35 AM 72.7 °F - 72.7 °F 100% 30.17 in 7.0 mi Calm Calm - N/A   Clear
2:55 AM 72.7 °F - 72.7 °F 100% 30.16 in 10.0 mi Calm Calm - N/A   Clear
3:15 AM 72.5 °F - 72.5 °F 100% 30.16 in 7.0 mi Calm Calm - N/A   Clear
3:35 AM 72.5 °F - 72.5 °F 100% 30.16 in 7.0 mi Calm Calm - N/A   Clear
3:55 AM 72.0 °F - 72.0 °F 100% 30.17 in 10.0 mi Calm Calm - N/A   Clear
4:15 AM 71.6 °F - 71.6 °F 100% 30.17 in 7.0 mi Calm Calm - N/A   Clear
4:35 AM 71.6 °F - 71.6 °F 100% 30.17 in 10.0 mi Calm Calm - N/A   Clear
4:55 AM 71.6 °F - 71.6 °F 100% 30.17 in 5.0 mi Calm Calm - N/A   Clear
5:15 AM 71.6 °F - 71.6 °F 100% 30.17 in 10.0 mi Calm Calm - N/A   Clear
5:35 AM 72.0 °F - 72.0 °F 100% 30.17 in 10.0 mi Calm Calm - N/A   Clear
5:55 AM 71.6 °F - 71.6 °F 100% 30.18 in 7.0 mi Calm Calm - N/A   Clear
6:15 AM 70.7 °F - 70.7 °F 100% 30.19 in 10.0 mi Calm Calm - N/A   Clear
6:35 AM 70.9 °F - 70.9 °F 100% 30.19 in 7.0 mi Calm Calm - N/A   Clear
6:55 AM 70.3 °F - 70.3 °F 100% 30.19 in 10.0 mi Calm Calm - N/A   Clear
7:15 AM 71.6 °F - 71.6 °F 100% 30.19 in 7.0 mi Calm Calm - N/A   Clear
7:35 AM 72.7 °F - 72.7 °F 100% 30.19 in 7.0 mi Calm Calm - N/A   Clear
7:55 AM 73.8 °F - 73.8 °F 100% 30.19 in 10.0 mi Calm Calm - N/A   Clear
8:15 AM 75.6 °F - 74.7 °F 97% 30.20 in 10.0 mi Calm Calm - N/A   Clear
8:35 AM 78.4 °F - 75.7 °F 91% 30.20 in 10.0 mi Calm Calm - N/A   Clear
8:55 AM 79.9 °F - 76.6 °F 90% 30.20 in 10.0 mi Calm Calm - N/A   Clear
9:15 AM 81.3 °F 88.5 °F 76.6 °F 86% 30.20 in 10.0 mi WSW 6.9 mph - N/A   Clear
9:35 AM 82.4 °F 90.9 °F 77.0 °F 84% 30.21 in 10.0 mi WSW 4.6 mph - N/A   Clear
9:55 AM 83.3 °F 92.4 °F 77.0 °F 81% 30.21 in 10.0 mi WNW 5.8 mph - N/A   Clear
10:15 AM 83.7 °F 93.1 °F 76.8 °F 80% 30.21 in 10.0 mi WSW 5.8 mph - N/A   Clear
10:35 AM 84.9 °F 94.9 °F 76.5 °F 76% 30.21 in 10.0 mi WNW 8.1 mph - N/A   Scattered Clouds
10:55 AM 85.1 °F 94.9 °F 76.3 °F 75% 30.21 in 10.0 mi WSW 8.1 mph - N/A   Scattered Clouds
11:15 AM 85.5 °F 95.0 °F 75.7 °F 73% 30.21 in 10.0 mi WSW 8.1 mph - N/A   Scattered Clouds
11:35 AM 86.4 °F 95.5 °F 75.2 °F 69% 30.21 in 10.0 mi West 9.2 mph - N/A   Scattered Clouds
11:55 AM 87.3 °F 95.3 °F 73.8 °F 64% 30.20 in 10.0 mi West 5.8 mph - N/A   Clear
12:15 PM 87.6 °F 96.2 °F 74.3 °F 64% 30.20 in 10.0 mi West 6.9 mph - N/A   Scattered Clouds
12:35 PM 87.8 °F 96.6 °F 74.3 °F 64% 30.19 in 10.0 mi West 9.2 mph - N/A   Scattered Clouds
12:55 PM 90.1 °F 101.2 °F 75.6 °F 62% 30.19 in 10.0 mi SW 4.6 mph - N/A   Scattered Clouds
1:15 PM 88.9 °F 98.6 °F 74.8 °F 63% 30.19 in 10.0 mi WSW 4.6 mph - N/A   Scattered Clouds
1:35 PM 88.3 °F 96.9 °F 73.9 °F 62% 30.18 in 10.0 mi WSW 4.6 mph - N/A   Scattered Clouds
1:55 PM 90.1 °F 100.6 °F 74.8 °F 61% 30.18 in 10.0 mi West 3.5 mph - N/A   Scattered Clouds
2:15 PM 90.7 °F 100.7 °F 74.7 °F 59% 30.17 in 10.0 mi WSW 8.1 mph - N/A   Mostly Cloudy
2:35 PM 91.2 °F 102.7 °F 75.4 °F 60% 30.16 in 10.0 mi SW 5.8 mph - N/A   Scattered Clouds
2:55 PM 91.6 °F 102.3 °F 75.0 °F 58% 30.15 in 10.0 mi West 9.2 mph - N/A   Scattered Clouds
3:15 PM 89.1 °F 98.5 °F 74.7 °F 62% 30.15 in 10.0 mi West 4.6 mph - N/A   Scattered Clouds
3:35 PM 90.3 °F 100.4 °F 74.8 °F 60% 30.15 in 10.0 mi SW 8.1 mph - N/A   Scattered Clouds
3:55 PM 91.4 °F 100.7 °F 73.9 °F 56% 30.14 in 10.0 mi West 6.9 mph - N/A   Scattered Clouds
4:15 PM 90.3 °F 100.4 °F 74.8 °F 60% 30.13 in 10.0 mi SW 3.5 mph - N/A   Scattered Clouds
4:35 PM 90.5 °F 99.7 °F 74.1 °F 58% 30.13 in 10.0 mi West 8.1 mph - N/A   Scattered Clouds
4:55 PM 91.2 °F 99.7 °F 73.2 °F 55% 30.12 in 10.0 mi SW 6.9 mph - N/A   Clear
5:15 PM 90.9 °F 100.0 °F 73.9 °F 57% 30.12 in 10.0 mi West 4.6 mph - N/A   Clear
5:35 PM 90.1 °F 98.3 °F 73.2 °F 57% 30.12 in 10.0 mi West 8.1 mph - N/A   Clear
5:55 PM 90.0 °F 99.0 °F 73.9 °F 59% 30.12 in 10.0 mi West 5.8 mph - N/A   Clear
6:15 PM 90.1 °F 100.6 °F 74.8 °F 61% 30.12 in 10.0 mi SW 3.5 mph - N/A   Clear
6:35 PM 89.8 °F 99.7 °F 74.5 °F 61% 30.12 in 10.0 mi WSW 3.5 mph - N/A   Clear
6:55 PM 89.6 °F 99.8 °F 75.2 °F 62% 30.12 in 10.0 mi WSW 3.5 mph - N/A   Clear
7:15 PM 88.2 °F 99.0 °F 75.7 °F 67% 30.12 in 10.0 mi SW 3.5 mph - N/A   Clear
7:35 PM 87.6 °F 98.2 °F 75.7 °F 68% 30.12 in 10.0 mi WSW 3.5 mph - N/A   Clear
7:55 PM 84.2 °F 93.8 °F 76.6 °F 78% 30.12 in 10.0 mi North - - N/A   Clear
8:15 PM 82.2 °F 89.9 °F 76.3 °F 82% 30.13 in 10.0 mi Calm Calm - N/A   Clear
8:35 PM 79.9 °F - 76.6 °F 90% 30.13 in 10.0 mi Calm Calm - N/A   Clear
8:55 PM 79.0 °F - 76.5 °F 92% 30.14 in 10.0 mi Calm Calm - N/A   Clear
9:15 PM 78.3 °F - 77.2 °F 96% 30.14 in 10.0 mi Calm Calm - N/A   Clear
9:35 PM 78.1 °F - 77.0 °F 96% 30.15 in 10.0 mi Calm Calm - N/A   Clear
9:55 PM 77.9 °F - 77.0 °F 97% 30.16 in 10.0 mi Calm Calm - N/A   Clear
10:15 PM 77.2 °F - 76.6 °F 98% 30.16 in 10.0 mi Calm Calm - N/A   Clear
10:35 PM 77.2 °F - 76.1 °F 96% 30.17 in 10.0 mi Calm Calm - N/A   Clear
10:55 PM 76.5 °F - 76.1 °F 99% 30.16 in 10.0 mi Calm Calm - N/A   Clear
11:15 PM 76.3 °F - 75.7 °F 98% 30.16 in 10.0 mi Calm Calm - N/A   Clear
11:35 PM 76.8 °F - 75.6 °F 96% 30.15 in 10.0 mi Calm Calm - N/A   Clear
11:55 PM 76.1 °F - 75.6 °F 98% 30.15 in 10.0 mi Calm Calm - N/A   Clear